sensor_id;sensor_type;location;lat;lon;timestamp;P1;durP1;ratioP1;P2;durP2;ratioP2
18320;SDS011;54904;54.350;18.664;2022-09-09T00:01:41;0.80;;;0.80;;
18320;SDS011;54904;54.350;18.664;2022-09-09T00:04:16;1.00;;;0.90;;
18320;SDS011;54904;54.350;18.664;2022-09-09T00:06:55;1.00;;;0.90;;
18320;SDS011;54904;54.350;18.664;2022-09-09T00:09:29;1.08;;;0.98;;
18320;SDS011;54904;54.350;18.664;2022-09-09T00:12:01;1.23;;;1.10;;
18320;SDS011;54904;54.350;18.664;2022-09-09T00:14:37;3.45;;;1.42;;
18320;SDS011;54904;54.350;18.664;2022-09-09T00:17:11;3.88;;;1.40;;
18320;SDS011;54904;54.350;18.664;2022-09-09T00:19:44;1.33;;;1.23;;
18320;SDS011;54904;54.350;18.664;2022-09-09T00:22:17;1.83;;;1.23;;
18320;SDS011;54904;54.350;18.664;2022-09-09T00:24:46;0.95;;;0.95;;
18320;SDS011;54904;54.350;18.664;2022-09-09T00:27:23;2.35;;;1.10;;
18320;SDS011;54904;54.350;18.664;2022-09-09T00:30:00;1.40;;;1.10;;
18320;SDS011;54904;54.350;18.664;2022-09-09T00:32:39;1.23;;;1.13;;
18320;SDS011;54904;54.350;18.664;2022-09-09T00:35:12;1.90;;;1.55;;
18320;SDS011;54904;54.350;18.664;2022-09-09T00:37:44;1.52;;;1.10;;
18320;SDS011;54904;54.350;18.664;2022-09-09T00:40:18;1.80;;;1.38;;
18320;SDS011;54904;54.350;18.664;2022-09-09T00:42:54;3.10;;;1.30;;
18320;SDS011;54904;54.350;18.664;2022-09-09T00:48:52;1.40;;;1.30;;
18320;SDS011;54904;54.350;18.664;2022-09-09T00:51:29;1.48;;;1.38;;
18320;SDS011;54904;54.350;18.664;2022-09-09T00:54:09;2.97;;;1.20;;
18320;SDS011;54904;54.350;18.664;2022-09-09T00:56:51;1.20;;;1.10;;
18320;SDS011;54904;54.350;18.664;2022-09-09T00:59:25;1.30;;;1.10;;
18320;SDS011;54904;54.350;18.664;2022-09-09T01:02:02;1.20;;;1.10;;
18320;SDS011;54904;54.350;18.664;2022-09-09T01:04:35;1.30;;;1.17;;
18320;SDS011;54904;54.350;18.664;2022-09-09T01:07:04;2.35;;;1.17;;
18320;SDS011;54904;54.350;18.664;2022-09-09T01:09:38;1.40;;;1.30;;
18320;SDS011;54904;54.350;18.664;2022-09-09T01:12:14;1.17;;;1.02;;
18320;SDS011;54904;54.350;18.664;2022-09-09T01:14:47;2.08;;;1.10;;
18320;SDS011;54904;54.350;18.664;2022-09-09T01:17:19;1.35;;;1.20;;
18320;SDS011;54904;54.350;18.664;2022-09-09T01:19:57;2.40;;;1.35;;
18320;SDS011;54904;54.350;18.664;2022-09-09T01:22:35;1.50;;;1.00;;
18320;SDS011;54904;54.350;18.664;2022-09-09T01:25:19;1.13;;;1.10;;
18320;SDS011;54904;54.350;18.664;2022-09-09T01:28:17;1.35;;;1.08;;
18320;SDS011;54904;54.350;18.664;2022-09-09T01:30:50;1.08;;;1.00;;
18320;SDS011;54904;54.350;18.664;2022-09-09T01:33:20;1.73;;;1.15;;
18320;SDS011;54904;54.350;18.664;2022-09-09T01:35:48;3.55;;;1.35;;
18320;SDS011;54904;54.350;18.664;2022-09-09T01:38:22;1.10;;;1.02;;
18320;SDS011;54904;54.350;18.664;2022-09-09T01:40:52;2.58;;;0.95;;
18320;SDS011;54904;54.350;18.664;2022-09-09T01:43:25;1.30;;;1.20;;
18320;SDS011;54904;54.350;18.664;2022-09-09T01:45:55;1.20;;;1.10;;
18320;SDS011;54904;54.350;18.664;2022-09-09T01:48:25;3.25;;;1.20;;
18320;SDS011;54904;54.350;18.664;2022-09-09T01:51:07;1.70;;;0.95;;
18320;SDS011;54904;54.350;18.664;2022-09-09T01:53:34;1.23;;;1.13;;
18320;SDS011;54904;54.350;18.664;2022-09-09T01:56:03;1.67;;;1.35;;
18320;SDS011;54904;54.350;18.664;2022-09-09T01:58:43;2.05;;;1.40;;
18320;SDS011;54904;54.350;18.664;2022-09-09T02:01:32;1.48;;;1.10;;
18320;SDS011;54904;54.350;18.664;2022-09-09T02:04:13;3.35;;;1.40;;
18320;SDS011;54904;54.350;18.664;2022-09-09T02:06:52;1.10;;;0.90;;
18320;SDS011;54904;54.350;18.664;2022-09-09T02:09:26;2.45;;;1.02;;
18320;SDS011;54904;54.350;18.664;2022-09-09T02:11:57;4.78;;;1.20;;
18320;SDS011;54904;54.350;18.664;2022-09-09T02:14:40;1.25;;;1.15;;
18320;SDS011;54904;54.350;18.664;2022-09-09T02:17:10;1.88;;;1.05;;
18320;SDS011;54904;54.350;18.664;2022-09-09T02:19:59;1.20;;;1.10;;
18320;SDS011;54904;54.350;18.664;2022-09-09T02:22:54;2.28;;;1.23;;
18320;SDS011;54904;54.350;18.664;2022-09-09T02:25:25;1.10;;;1.10;;
18320;SDS011;54904;54.350;18.664;2022-09-09T02:27:59;3.20;;;1.30;;
18320;SDS011;54904;54.350;18.664;2022-09-09T02:30:29;2.58;;;1.20;;
18320;SDS011;54904;54.350;18.664;2022-09-09T02:33:00;2.47;;;1.00;;
18320;SDS011;54904;54.350;18.664;2022-09-09T02:35:42;1.10;;;1.10;;
18320;SDS011;54904;54.350;18.664;2022-09-09T02:38:14;2.70;;;1.67;;
18320;SDS011;54904;54.350;18.664;2022-09-09T02:40:55;3.15;;;1.58;;
18320;SDS011;54904;54.350;18.664;2022-09-09T02:43:23;3.97;;;1.65;;
18320;SDS011;54904;54.350;18.664;2022-09-09T02:45:53;3.55;;;1.70;;
18320;SDS011;54904;54.350;18.664;2022-09-09T02:48:30;2.22;;;1.60;;
18320;SDS011;54904;54.350;18.664;2022-09-09T02:51:08;1.30;;;1.20;;
18320;SDS011;54904;54.350;18.664;2022-09-09T02:53:43;2.40;;;1.27;;
18320;SDS011;54904;54.350;18.664;2022-09-09T02:56:17;2.38;;;1.50;;
18320;SDS011;54904;54.350;18.664;2022-09-09T02:58:48;1.30;;;1.20;;
18320;SDS011;54904;54.350;18.664;2022-09-09T03:01:18;1.35;;;1.10;;
18320;SDS011;54904;54.350;18.664;2022-09-09T03:03:46;4.60;;;1.23;;
18320;SDS011;54904;54.350;18.664;2022-09-09T03:06:15;3.17;;;1.30;;
18320;SDS011;54904;54.350;18.664;2022-09-09T03:08:46;2.25;;;1.40;;
18320;SDS011;54904;54.350;18.664;2022-09-09T03:11:17;1.80;;;1.27;;
18320;SDS011;54904;54.350;18.664;2022-09-09T03:13:44;4.03;;;1.43;;
18320;SDS011;54904;54.350;18.664;2022-09-09T03:16:12;1.40;;;1.30;;
18320;SDS011;54904;54.350;18.664;2022-09-09T03:18:45;1.75;;;1.38;;
18320;SDS011;54904;54.350;18.664;2022-09-09T03:21:12;1.70;;;1.60;;
18320;SDS011;54904;54.350;18.664;2022-09-09T03:23:40;4.53;;;1.77;;
18320;SDS011;54904;54.350;18.664;2022-09-09T03:26:08;1.65;;;1.55;;
18320;SDS011;54904;54.350;18.664;2022-09-09T03:28:43;9.37;;;2.20;;
18320;SDS011;54904;54.350;18.664;2022-09-09T03:31:12;4.77;;;1.97;;
18320;SDS011;54904;54.350;18.664;2022-09-09T03:33:40;3.70;;;2.03;;
18320;SDS011;54904;54.350;18.664;2022-09-09T03:36:12;3.70;;;2.10;;
18320;SDS011;54904;54.350;18.664;2022-09-09T03:38:39;5.20;;;2.40;;
18320;SDS011;54904;54.350;18.664;2022-09-09T03:41:07;2.07;;;1.60;;
18320;SDS011;54904;54.350;18.664;2022-09-09T03:43:35;5.17;;;2.30;;
18320;SDS011;54904;54.350;18.664;2022-09-09T03:46:03;2.53;;;2.20;;
18320;SDS011;54904;54.350;18.664;2022-09-09T03:48:30;2.00;;;1.40;;
18320;SDS011;54904;54.350;18.664;2022-09-09T03:50:58;3.67;;;1.60;;
18320;SDS011;54904;54.350;18.664;2022-09-09T03:53:29;3.57;;;1.77;;
18320;SDS011;54904;54.350;18.664;2022-09-09T03:55:57;4.33;;;2.03;;
18320;SDS011;54904;54.350;18.664;2022-09-09T03:58:26;3.00;;;2.00;;
18320;SDS011;54904;54.350;18.664;2022-09-09T04:01:01;4.67;;;2.00;;
18320;SDS011;54904;54.350;18.664;2022-09-09T04:03:29;4.20;;;2.33;;
18320;SDS011;54904;54.350;18.664;2022-09-09T04:05:58;3.40;;;1.90;;
18320;SDS011;54904;54.350;18.664;2022-09-09T04:08:30;2.33;;;2.00;;
18320;SDS011;54904;54.350;18.664;2022-09-09T04:10:58;3.67;;;2.40;;
18320;SDS011;54904;54.350;18.664;2022-09-09T04:13:31;4.53;;;2.00;;
18320;SDS011;54904;54.350;18.664;2022-09-09T04:16:01;1.93;;;1.73;;
18320;SDS011;54904;54.350;18.664;2022-09-09T04:18:30;2.53;;;1.93;;
18320;SDS011;54904;54.350;18.664;2022-09-09T04:20:58;4.63;;;2.23;;
18320;SDS011;54904;54.350;18.664;2022-09-09T04:23:30;2.43;;;1.90;;
18320;SDS011;54904;54.350;18.664;2022-09-09T04:25:58;5.27;;;2.10;;
18320;SDS011;54904;54.350;18.664;2022-09-09T04:28:27;4.27;;;2.37;;
18320;SDS011;54904;54.350;18.664;2022-09-09T04:30:58;3.47;;;2.00;;
18320;SDS011;54904;54.350;18.664;2022-09-09T04:33:31;5.20;;;1.97;;
18320;SDS011;54904;54.350;18.664;2022-09-09T04:35:58;6.73;;;2.50;;
18320;SDS011;54904;54.350;18.664;2022-09-09T04:38:25;4.33;;;1.70;;
18320;SDS011;54904;54.350;18.664;2022-09-09T04:40:55;4.33;;;2.10;;
18320;SDS011;54904;54.350;18.664;2022-09-09T04:43:24;2.90;;;2.13;;
18320;SDS011;54904;54.350;18.664;2022-09-09T04:45:52;1.90;;;1.70;;
18320;SDS011;54904;54.350;18.664;2022-09-09T04:48:22;3.57;;;2.23;;
18320;SDS011;54904;54.350;18.664;2022-09-09T04:50:54;2.30;;;1.80;;
18320;SDS011;54904;54.350;18.664;2022-09-09T04:53:22;2.63;;;1.77;;
18320;SDS011;54904;54.350;18.664;2022-09-09T04:55:51;2.63;;;1.87;;
18320;SDS011;54904;54.350;18.664;2022-09-09T04:58:20;8.07;;;1.90;;
18320;SDS011;54904;54.350;18.664;2022-09-09T05:00:49;3.27;;;2.00;;
18320;SDS011;54904;54.350;18.664;2022-09-09T05:03:18;3.83;;;2.37;;
18320;SDS011;54904;54.350;18.664;2022-09-09T05:05:45;3.10;;;2.23;;
18320;SDS011;54904;54.350;18.664;2022-09-09T05:08:13;3.20;;;2.43;;
18320;SDS011;54904;54.350;18.664;2022-09-09T05:10:40;5.03;;;2.33;;
18320;SDS011;54904;54.350;18.664;2022-09-09T05:13:08;4.37;;;2.47;;
18320;SDS011;54904;54.350;18.664;2022-09-09T05:15:36;2.60;;;1.90;;
18320;SDS011;54904;54.350;18.664;2022-09-09T05:18:04;2.63;;;1.93;;
18320;SDS011;54904;54.350;18.664;2022-09-09T05:20:31;3.20;;;2.10;;
18320;SDS011;54904;54.350;18.664;2022-09-09T05:23:00;2.10;;;1.90;;
18320;SDS011;54904;54.350;18.664;2022-09-09T05:25:29;3.07;;;2.07;;
18320;SDS011;54904;54.350;18.664;2022-09-09T05:27:58;4.97;;;2.20;;
18320;SDS011;54904;54.350;18.664;2022-09-09T05:30:25;2.80;;;2.00;;
18320;SDS011;54904;54.350;18.664;2022-09-09T05:32:56;2.73;;;2.00;;
18320;SDS011;54904;54.350;18.664;2022-09-09T05:35:23;3.33;;;1.80;;
18320;SDS011;54904;54.350;18.664;2022-09-09T05:37:50;2.60;;;2.03;;
18320;SDS011;54904;54.350;18.664;2022-09-09T05:40:18;4.33;;;1.90;;
18320;SDS011;54904;54.350;18.664;2022-09-09T05:42:46;4.50;;;1.60;;
18320;SDS011;54904;54.350;18.664;2022-09-09T05:45:14;1.80;;;1.70;;
18320;SDS011;54904;54.350;18.664;2022-09-09T05:47:41;1.60;;;1.50;;
18320;SDS011;54904;54.350;18.664;2022-09-09T05:50:11;3.10;;;1.80;;
18320;SDS011;54904;54.350;18.664;2022-09-09T05:52:40;2.37;;;1.67;;
18320;SDS011;54904;54.350;18.664;2022-09-09T05:55:07;1.97;;;1.30;;
18320;SDS011;54904;54.350;18.664;2022-09-09T05:57:34;1.97;;;1.67;;
18320;SDS011;54904;54.350;18.664;2022-09-09T06:00:02;1.97;;;1.20;;
18320;SDS011;54904;54.350;18.664;2022-09-09T06:02:39;1.87;;;1.50;;
18320;SDS011;54904;54.350;18.664;2022-09-09T06:05:09;3.33;;;1.80;;
18320;SDS011;54904;54.350;18.664;2022-09-09T06:07:38;2.10;;;1.70;;
18320;SDS011;54904;54.350;18.664;2022-09-09T06:10:07;1.87;;;1.60;;
18320;SDS011;54904;54.350;18.664;2022-09-09T06:12:35;3.17;;;1.87;;
18320;SDS011;54904;54.350;18.664;2022-09-09T06:15:02;3.00;;;1.40;;
18320;SDS011;54904;54.350;18.664;2022-09-09T06:17:29;2.40;;;1.60;;
18320;SDS011;54904;54.350;18.664;2022-09-09T06:19:56;2.20;;;1.80;;
18320;SDS011;54904;54.350;18.664;2022-09-09T06:22:24;1.50;;;1.40;;
18320;SDS011;54904;54.350;18.664;2022-09-09T06:24:52;2.70;;;1.17;;
18320;SDS011;54904;54.350;18.664;2022-09-09T06:27:19;1.30;;;1.17;;
18320;SDS011;54904;54.350;18.664;2022-09-09T06:29:46;1.93;;;1.50;;
18320;SDS011;54904;54.350;18.664;2022-09-09T06:32:15;1.87;;;1.50;;
18320;SDS011;54904;54.350;18.664;2022-09-09T06:34:43;2.37;;;1.57;;
18320;SDS011;54904;54.350;18.664;2022-09-09T06:37:10;1.50;;;1.40;;
18320;SDS011;54904;54.350;18.664;2022-09-09T06:39:44;2.93;;;1.40;;
18320;SDS011;54904;54.350;18.664;2022-09-09T06:42:12;2.73;;;1.10;;
18320;SDS011;54904;54.350;18.664;2022-09-09T06:44:46;1.30;;;1.20;;
18320;SDS011;54904;54.350;18.664;2022-09-09T06:47:31;1.10;;;1.10;;
18320;SDS011;54904;54.350;18.664;2022-09-09T06:49:59;1.40;;;1.30;;
18320;SDS011;54904;54.350;18.664;2022-09-09T06:52:26;1.10;;;1.10;;
18320;SDS011;54904;54.350;18.664;2022-09-09T06:54:55;1.30;;;1.20;;
18320;SDS011;54904;54.350;18.664;2022-09-09T06:57:25;1.63;;;1.30;;
18320;SDS011;54904;54.350;18.664;2022-09-09T06:59:52;2.90;;;1.00;;
18320;SDS011;54904;54.350;18.664;2022-09-09T07:02:19;2.13;;;1.23;;
18320;SDS011;54904;54.350;18.664;2022-09-09T07:04:46;2.37;;;1.00;;
18320;SDS011;54904;54.350;18.664;2022-09-09T07:07:17;1.20;;;1.10;;
18320;SDS011;54904;54.350;18.664;2022-09-09T07:09:45;3.07;;;1.80;;
18320;SDS011;54904;54.350;18.664;2022-09-09T07:12:13;1.97;;;1.30;;
18320;SDS011;54904;54.350;18.664;2022-09-09T07:14:49;1.00;;;1.00;;
18320;SDS011;54904;54.350;18.664;2022-09-09T07:17:16;1.30;;;1.20;;
18320;SDS011;54904;54.350;18.664;2022-09-09T07:19:43;2.23;;;1.10;;
18320;SDS011;54904;54.350;18.664;2022-09-09T07:22:10;1.83;;;1.30;;
18320;SDS011;54904;54.350;18.664;2022-09-09T07:24:38;2.93;;;1.33;;
18320;SDS011;54904;54.350;18.664;2022-09-09T07:27:05;1.43;;;1.20;;
18320;SDS011;54904;54.350;18.664;2022-09-09T07:29:34;0.97;;;0.90;;
18320;SDS011;54904;54.350;18.664;2022-09-09T07:32:03;7.87;;;1.80;;
18320;SDS011;54904;54.350;18.664;2022-09-09T07:34:35;4.43;;;1.40;;
18320;SDS011;54904;54.350;18.664;2022-09-09T07:37:03;1.70;;;1.60;;
18320;SDS011;54904;54.350;18.664;2022-09-09T07:39:31;2.03;;;1.33;;
18320;SDS011;54904;54.350;18.664;2022-09-09T07:41:58;1.60;;;1.50;;
18320;SDS011;54904;54.350;18.664;2022-09-09T07:44:26;1.63;;;1.53;;
18320;SDS011;54904;54.350;18.664;2022-09-09T07:47:05;3.20;;;1.80;;
18320;SDS011;54904;54.350;18.664;2022-09-09T07:49:39;1.30;;;1.20;;
18320;SDS011;54904;54.350;18.664;2022-09-09T07:52:07;2.00;;;1.70;;
18320;SDS011;54904;54.350;18.664;2022-09-09T07:54:38;1.50;;;1.40;;
18320;SDS011;54904;54.350;18.664;2022-09-09T07:57:06;1.87;;;1.77;;
18320;SDS011;54904;54.350;18.664;2022-09-09T07:59:35;2.43;;;1.90;;
18320;SDS011;54904;54.350;18.664;2022-09-09T08:02:02;2.00;;;1.70;;
18320;SDS011;54904;54.350;18.664;2022-09-09T08:04:34;2.43;;;1.80;;
18320;SDS011;54904;54.350;18.664;2022-09-09T08:07:02;2.60;;;1.80;;
18320;SDS011;54904;54.350;18.664;2022-09-09T08:09:33;2.47;;;1.60;;
18320;SDS011;54904;54.350;18.664;2022-09-09T08:12:10;2.67;;;1.50;;
18320;SDS011;54904;54.350;18.664;2022-09-09T08:14:38;2.47;;;1.67;;
18320;SDS011;54904;54.350;18.664;2022-09-09T08:17:07;1.70;;;1.57;;
18320;SDS011;54904;54.350;18.664;2022-09-09T08:19:34;3.30;;;1.80;;
18320;SDS011;54904;54.350;18.664;2022-09-09T08:22:04;2.47;;;1.30;;
18320;SDS011;54904;54.350;18.664;2022-09-09T08:24:33;1.60;;;1.50;;
18320;SDS011;54904;54.350;18.664;2022-09-09T08:27:01;1.43;;;1.33;;
18320;SDS011;54904;54.350;18.664;2022-09-09T08:29:28;1.60;;;1.50;;
18320;SDS011;54904;54.350;18.664;2022-09-09T08:31:56;1.60;;;1.50;;
18320;SDS011;54904;54.350;18.664;2022-09-09T08:34:28;2.03;;;1.60;;
18320;SDS011;54904;54.350;18.664;2022-09-09T08:36:57;1.70;;;1.60;;
18320;SDS011;54904;54.350;18.664;2022-09-09T08:39:32;3.23;;;2.10;;
18320;SDS011;54904;54.350;18.664;2022-09-09T08:45:04;3.63;;;2.10;;
18320;SDS011;54904;54.350;18.664;2022-09-09T08:47:43;2.13;;;1.70;;
18320;SDS011;54904;54.350;18.664;2022-09-09T08:50:23;2.50;;;1.53;;
18320;SDS011;54904;54.350;18.664;2022-09-09T08:53:00;3.33;;;2.00;;
18320;SDS011;54904;54.350;18.664;2022-09-09T08:55:37;2.10;;;1.90;;
18320;SDS011;54904;54.350;18.664;2022-09-09T08:58:11;3.17;;;1.80;;
18320;SDS011;54904;54.350;18.664;2022-09-09T09:00:44;2.53;;;2.30;;
18320;SDS011;54904;54.350;18.664;2022-09-09T09:03:28;1.70;;;1.60;;
18320;SDS011;54904;54.350;18.664;2022-09-09T09:06:06;1.93;;;1.80;;
18320;SDS011;54904;54.350;18.664;2022-09-09T09:08:43;2.00;;;1.70;;
18320;SDS011;54904;54.350;18.664;2022-09-09T09:11:15;2.13;;;1.90;;
18320;SDS011;54904;54.350;18.664;2022-09-09T09:13:44;2.30;;;1.50;;
18320;SDS011;54904;54.350;18.664;2022-09-09T09:16:19;1.80;;;1.70;;
18320;SDS011;54904;54.350;18.664;2022-09-09T09:18:53;2.23;;;2.03;;
18320;SDS011;54904;54.350;18.664;2022-09-09T09:21:26;4.77;;;2.53;;
18320;SDS011;54904;54.350;18.664;2022-09-09T09:24:01;3.70;;;2.07;;
18320;SDS011;54904;54.350;18.664;2022-09-09T09:26:32;3.17;;;1.70;;
18320;SDS011;54904;54.350;18.664;2022-09-09T09:29:04;2.50;;;1.80;;
18320;SDS011;54904;54.350;18.664;2022-09-09T09:31:41;2.20;;;2.00;;
18320;SDS011;54904;54.350;18.664;2022-09-09T09:34:10;2.10;;;1.83;;
18320;SDS011;54904;54.350;18.664;2022-09-09T09:36:41;2.20;;;1.53;;
18320;SDS011;54904;54.350;18.664;2022-09-09T09:39:22;1.60;;;1.50;;
18320;SDS011;54904;54.350;18.664;2022-09-09T09:41:50;2.30;;;2.07;;
18320;SDS011;54904;54.350;18.664;2022-09-09T09:44:21;3.97;;;2.30;;
18320;SDS011;54904;54.350;18.664;2022-09-09T09:46:50;2.30;;;2.10;;
18320;SDS011;54904;54.350;18.664;2022-09-09T09:49:18;2.00;;;1.90;;
18320;SDS011;54904;54.350;18.664;2022-09-09T09:51:47;1.90;;;1.80;;
18320;SDS011;54904;54.350;18.664;2022-09-09T09:54:16;3.50;;;2.30;;
18320;SDS011;54904;54.350;18.664;2022-09-09T09:56:52;2.00;;;1.90;;
18320;SDS011;54904;54.350;18.664;2022-09-09T09:59:20;3.37;;;2.43;;
18320;SDS011;54904;54.350;18.664;2022-09-09T10:01:50;4.00;;;2.53;;
18320;SDS011;54904;54.350;18.664;2022-09-09T10:04:19;2.20;;;2.00;;
18320;SDS011;54904;54.350;18.664;2022-09-09T10:06:52;2.60;;;2.10;;
18320;SDS011;54904;54.350;18.664;2022-09-09T10:09:21;2.63;;;2.23;;
18320;SDS011;54904;54.350;18.664;2022-09-09T10:11:52;2.60;;;2.40;;
18320;SDS011;54904;54.350;18.664;2022-09-09T10:14:29;2.87;;;2.50;;
18320;SDS011;54904;54.350;18.664;2022-09-09T10:17:06;3.60;;;2.37;;
18320;SDS011;54904;54.350;18.664;2022-09-09T10:19:43;5.67;;;3.13;;
18320;SDS011;54904;54.350;18.664;2022-09-09T10:22:26;2.77;;;2.57;;
18320;SDS011;54904;54.350;18.664;2022-09-09T10:27:50;2.53;;;2.33;;
18320;SDS011;54904;54.350;18.664;2022-09-09T10:30:29;2.27;;;2.13;;
18320;SDS011;54904;54.350;18.664;2022-09-09T10:33:04;3.70;;;2.40;;
18320;SDS011;54904;54.350;18.664;2022-09-09T10:35:38;4.57;;;2.23;;
18320;SDS011;54904;54.350;18.664;2022-09-09T10:38:19;4.27;;;2.50;;
18320;SDS011;54904;54.350;18.664;2022-09-09T10:41:11;2.60;;;2.40;;
18320;SDS011;54904;54.350;18.664;2022-09-09T10:43:50;2.70;;;2.30;;
18320;SDS011;54904;54.350;18.664;2022-09-09T10:46:39;4.17;;;2.20;;
18320;SDS011;54904;54.350;18.664;2022-09-09T10:49:21;4.03;;;2.67;;
18320;SDS011;54904;54.350;18.664;2022-09-09T10:52:00;5.53;;;3.13;;
18320;SDS011;54904;54.350;18.664;2022-09-09T10:54:40;6.10;;;3.00;;
18320;SDS011;54904;54.350;18.664;2022-09-09T10:57:24;3.93;;;2.73;;
18320;SDS011;54904;54.350;18.664;2022-09-09T10:59:58;4.20;;;2.23;;
18320;SDS011;54904;54.350;18.664;2022-09-09T11:02:30;2.73;;;2.10;;
18320;SDS011;54904;54.350;18.664;2022-09-09T11:04:58;5.53;;;2.20;;
18320;SDS011;54904;54.350;18.664;2022-09-09T11:07:33;4.10;;;2.50;;
18320;SDS011;54904;54.350;18.664;2022-09-09T11:10:07;4.17;;;2.27;;
18320;SDS011;54904;54.350;18.664;2022-09-09T11:12:44;3.20;;;2.40;;
18320;SDS011;54904;54.350;18.664;2022-09-09T11:15:16;3.13;;;2.67;;
18320;SDS011;54904;54.350;18.664;2022-09-09T11:17:49;2.60;;;2.40;;
18320;SDS011;54904;54.350;18.664;2022-09-09T11:20:19;2.77;;;2.30;;
18320;SDS011;54904;54.350;18.664;2022-09-09T11:22:48;3.20;;;2.43;;
18320;SDS011;54904;54.350;18.664;2022-09-09T11:25:22;3.07;;;2.40;;
18320;SDS011;54904;54.350;18.664;2022-09-09T11:28:15;3.70;;;2.40;;
18320;SDS011;54904;54.350;18.664;2022-09-09T11:31:02;2.97;;;2.40;;
18320;SDS011;54904;54.350;18.664;2022-09-09T11:33:49;2.70;;;2.50;;
18320;SDS011;54904;54.350;18.664;2022-09-09T11:36:41;3.00;;;2.50;;
18320;SDS011;54904;54.350;18.664;2022-09-09T11:39:36;2.83;;;2.57;;
18320;SDS011;54904;54.350;18.664;2022-09-09T11:42:17;3.77;;;2.53;;
18320;SDS011;54904;54.350;18.664;2022-09-09T11:44:46;2.60;;;2.40;;
18320;SDS011;54904;54.350;18.664;2022-09-09T11:47:19;3.03;;;2.50;;
18320;SDS011;54904;54.350;18.664;2022-09-09T11:49:50;4.13;;;2.90;;
18320;SDS011;54904;54.350;18.664;2022-09-09T11:52:20;5.07;;;3.10;;
18320;SDS011;54904;54.350;18.664;2022-09-09T11:54:51;3.70;;;3.20;;
18320;SDS011;54904;54.350;18.664;2022-09-09T11:57:26;6.57;;;3.67;;
18320;SDS011;54904;54.350;18.664;2022-09-09T11:59:58;5.10;;;3.53;;
18320;SDS011;54904;54.350;18.664;2022-09-09T12:02:26;3.20;;;2.90;;
18320;SDS011;54904;54.350;18.664;2022-09-09T12:04:57;2.87;;;2.60;;
18320;SDS011;54904;54.350;18.664;2022-09-09T12:07:34;3.03;;;2.70;;
18320;SDS011;54904;54.350;18.664;2022-09-09T12:10:04;3.93;;;3.13;;
18320;SDS011;54904;54.350;18.664;2022-09-09T12:12:47;4.30;;;3.13;;
18320;SDS011;54904;54.350;18.664;2022-09-09T12:15:19;2.43;;;2.27;;
18320;SDS011;54904;54.350;18.664;2022-09-09T12:17:54;2.87;;;2.60;;
18320;SDS011;54904;54.350;18.664;2022-09-09T12:20:23;3.97;;;3.13;;
18320;SDS011;54904;54.350;18.664;2022-09-09T12:23:10;3.80;;;3.07;;
18320;SDS011;54904;54.350;18.664;2022-09-09T12:26:05;4.17;;;3.10;;
18320;SDS011;54904;54.350;18.664;2022-09-09T12:28:47;4.20;;;2.97;;
18320;SDS011;54904;54.350;18.664;2022-09-09T12:31:21;2.80;;;2.60;;
18320;SDS011;54904;54.350;18.664;2022-09-09T12:33:53;3.87;;;3.13;;
18320;SDS011;54904;54.350;18.664;2022-09-09T12:36:21;4.60;;;3.43;;
18320;SDS011;54904;54.350;18.664;2022-09-09T12:38:51;4.53;;;3.13;;
18320;SDS011;54904;54.350;18.664;2022-09-09T12:41:20;3.87;;;3.00;;
18320;SDS011;54904;54.350;18.664;2022-09-09T12:43:49;4.53;;;3.20;;
18320;SDS011;54904;54.350;18.664;2022-09-09T12:46:26;2.93;;;2.73;;
18320;SDS011;54904;54.350;18.664;2022-09-09T12:49:01;3.37;;;3.07;;
18320;SDS011;54904;54.350;18.664;2022-09-09T12:51:29;3.13;;;2.87;;
18320;SDS011;54904;54.350;18.664;2022-09-09T12:53:57;3.47;;;3.13;;
18320;SDS011;54904;54.350;18.664;2022-09-09T12:56:26;4.13;;;2.97;;
18320;SDS011;54904;54.350;18.664;2022-09-09T12:58:57;4.17;;;2.90;;
18320;SDS011;54904;54.350;18.664;2022-09-09T13:01:26;4.37;;;3.70;;
18320;SDS011;54904;54.350;18.664;2022-09-09T13:03:54;6.20;;;3.33;;
18320;SDS011;54904;54.350;18.664;2022-09-09T13:06:22;3.50;;;3.20;;
18320;SDS011;54904;54.350;18.664;2022-09-09T13:08:51;3.93;;;3.10;;
18320;SDS011;54904;54.350;18.664;2022-09-09T13:11:19;3.73;;;3.37;;
18320;SDS011;54904;54.350;18.664;2022-09-09T13:13:50;4.23;;;2.93;;
18320;SDS011;54904;54.350;18.664;2022-09-09T13:16:21;3.80;;;3.40;;
18320;SDS011;54904;54.350;18.664;2022-09-09T13:18:51;3.13;;;2.70;;
18320;SDS011;54904;54.350;18.664;2022-09-09T13:21:19;3.83;;;3.47;;
18320;SDS011;54904;54.350;18.664;2022-09-09T13:23:57;3.80;;;3.50;;
18320;SDS011;54904;54.350;18.664;2022-09-09T13:26:28;4.37;;;3.67;;
18320;SDS011;54904;54.350;18.664;2022-09-09T13:29:07;3.60;;;3.30;;
18320;SDS011;54904;54.350;18.664;2022-09-09T13:31:43;3.40;;;3.10;;
18320;SDS011;54904;54.350;18.664;2022-09-09T13:34:11;6.57;;;3.23;;
18320;SDS011;54904;54.350;18.664;2022-09-09T13:36:39;4.80;;;3.33;;
18320;SDS011;54904;54.350;18.664;2022-09-09T13:39:13;3.90;;;3.37;;
18320;SDS011;54904;54.350;18.664;2022-09-09T13:41:44;3.20;;;2.93;;
18320;SDS011;54904;54.350;18.664;2022-09-09T13:44:17;3.80;;;3.50;;
18320;SDS011;54904;54.350;18.664;2022-09-09T13:47:00;3.47;;;3.17;;
18320;SDS011;54904;54.350;18.664;2022-09-09T13:49:29;3.73;;;3.43;;
18320;SDS011;54904;54.350;18.664;2022-09-09T13:52:05;5.17;;;3.30;;
18320;SDS011;54904;54.350;18.664;2022-09-09T13:54:36;4.80;;;3.43;;
18320;SDS011;54904;54.350;18.664;2022-09-09T13:57:04;5.60;;;3.00;;
18320;SDS011;54904;54.350;18.664;2022-09-09T13:59:31;4.77;;;3.40;;
18320;SDS011;54904;54.350;18.664;2022-09-09T14:02:01;3.97;;;3.23;;
18320;SDS011;54904;54.350;18.664;2022-09-09T14:04:28;3.67;;;3.07;;
18320;SDS011;54904;54.350;18.664;2022-09-09T14:06:55;3.97;;;3.23;;
18320;SDS011;54904;54.350;18.664;2022-09-09T14:09:23;5.17;;;3.60;;
18320;SDS011;54904;54.350;18.664;2022-09-09T14:11:50;7.60;;;3.77;;
18320;SDS011;54904;54.350;18.664;2022-09-09T14:14:17;3.73;;;3.40;;
18320;SDS011;54904;54.350;18.664;2022-09-09T14:16:44;3.27;;;2.97;;
18320;SDS011;54904;54.350;18.664;2022-09-09T14:19:12;4.23;;;2.80;;
18320;SDS011;54904;54.350;18.664;2022-09-09T14:21:39;5.13;;;3.10;;
18320;SDS011;54904;54.350;18.664;2022-09-09T14:24:06;3.63;;;2.80;;
18320;SDS011;54904;54.350;18.664;2022-09-09T14:26:33;2.60;;;2.40;;
18320;SDS011;54904;54.350;18.664;2022-09-09T14:29:00;4.20;;;3.17;;
18320;SDS011;54904;54.350;18.664;2022-09-09T14:31:27;4.63;;;3.73;;
18320;SDS011;54904;54.350;18.664;2022-09-09T14:33:54;5.13;;;3.90;;
18320;SDS011;54904;54.350;18.664;2022-09-09T14:36:23;4.07;;;3.10;;
18320;SDS011;54904;54.350;18.664;2022-09-09T14:38:51;8.23;;;4.33;;
18320;SDS011;54904;54.350;18.664;2022-09-09T14:41:18;6.57;;;3.67;;
18320;SDS011;54904;54.350;18.664;2022-09-09T14:43:47;7.53;;;4.17;;
18320;SDS011;54904;54.350;18.664;2022-09-09T14:46:15;7.07;;;3.80;;
18320;SDS011;54904;54.350;18.664;2022-09-09T14:48:43;5.63;;;3.57;;
18320;SDS011;54904;54.350;18.664;2022-09-09T14:51:14;4.73;;;3.20;;
18320;SDS011;54904;54.350;18.664;2022-09-09T14:53:44;4.37;;;3.57;;
18320;SDS011;54904;54.350;18.664;2022-09-09T14:56:12;5.03;;;3.53;;
18320;SDS011;54904;54.350;18.664;2022-09-09T14:58:40;6.53;;;3.73;;
18320;SDS011;54904;54.350;18.664;2022-09-09T15:01:08;7.20;;;4.17;;
18320;SDS011;54904;54.350;18.664;2022-09-09T15:03:36;4.47;;;3.73;;
18320;SDS011;54904;54.350;18.664;2022-09-09T15:06:05;5.07;;;3.53;;
18320;SDS011;54904;54.350;18.664;2022-09-09T15:08:33;4.10;;;3.30;;
18320;SDS011;54904;54.350;18.664;2022-09-09T15:11:03;5.00;;;3.63;;